createdAt,value
2019-02-19T00:00:33.332Z,1.88
2019-02-19T00:03:02.772Z,1.85
2019-02-19T00:05:32.195Z,1.79
2019-02-19T00:08:01.631Z,1.65
2019-02-19T00:10:31.064Z,1.66
2019-02-19T00:13:00.507Z,1.52
2019-02-19T00:15:29.930Z,1.44
2019-02-19T00:17:59.379Z,1.50
2019-02-19T00:20:28.800Z,1.61
2019-02-19T00:22:58.507Z,1.64
2019-02-19T00:25:27.934Z,1.63
2019-02-19T00:27:57.405Z,1.56
2019-02-19T00:30:26.796Z,1.48
2019-02-19T00:32:56.240Z,1.53
2019-02-19T00:35:25.663Z,1.62
2019-02-19T00:37:55.112Z,1.69
2019-02-19T00:40:24.531Z,1.76
2019-02-19T00:42:53.972Z,1.82
2019-02-19T00:45:23.401Z,1.65
2019-02-19T00:47:52.841Z,1.63
2019-02-19T00:50:22.269Z,1.49
2019-02-19T00:52:51.718Z,1.48
2019-02-19T00:55:21.151Z,1.47
2019-02-19T00:57:50.593Z,1.41
2019-02-19T01:00:20.021Z,1.37
2019-02-19T01:02:49.458Z,1.32
2019-02-19T01:05:18.884Z,1.43
2019-02-19T01:07:48.592Z,1.52
2019-02-19T01:10:18.026Z,1.42
2019-02-19T01:12:47.458Z,1.42
2019-02-19T01:15:25.040Z,1.27
2019-02-19T01:17:48.043Z,1.30
2019-02-19T01:20:17.534Z,1.25
2019-02-19T01:22:46.979Z,1.15
2019-02-19T01:25:16.416Z,1.29
2019-02-19T01:27:45.850Z,1.39
2019-02-19T01:30:15.345Z,1.30
2019-02-19T01:32:44.785Z,1.36
2019-02-19T01:35:14.217Z,1.32
2019-02-19T01:37:43.640Z,1.26
2019-02-19T01:40:13.076Z,1.19
2019-02-19T01:42:42.507Z,1.08
2019-02-19T01:45:11.942Z,1.11
2019-02-19T01:47:41.374Z,1.12
2019-02-19T01:50:11.255Z,1.01
2019-02-19T01:52:40.690Z,0.92
2019-02-19T01:55:10.196Z,0.92
2019-02-19T01:57:39.629Z,0.90
2019-02-19T02:00:11.480Z,0.87
2019-02-19T02:02:40.913Z,0.97
2019-02-19T02:05:10.348Z,1.03
2019-02-19T02:07:39.769Z,1.11
2019-02-19T02:10:09.277Z,1.13
2019-02-19T02:12:38.708Z,1.15
2019-02-19T02:15:08.888Z,1.09
2019-02-19T02:17:38.312Z,1.10
2019-02-19T02:20:08.492Z,1.14
2019-02-19T02:22:37.915Z,1.10
2019-02-19T02:25:08.122Z,1.15
2019-02-19T02:27:37.556Z,1.13
2019-02-19T02:30:08.525Z,1.18
2019-02-19T02:32:37.959Z,1.12
2019-02-19T02:35:07.396Z,1.03
2019-02-19T02:37:36.828Z,1.06
2019-02-19T02:40:08.275Z,1.08
2019-02-19T02:42:37.707Z,1.00
2019-02-19T02:45:07.209Z,0.92
2019-02-19T02:47:36.639Z,0.89
2019-02-19T02:50:06.419Z,0.90
2019-02-19T02:52:35.845Z,0.88
2019-02-19T02:55:05.931Z,0.91
2019-02-19T02:57:35.362Z,0.90
2019-02-19T03:00:08.187Z,0.86
2019-02-19T03:02:37.620Z,0.78
2019-02-19T03:05:07.330Z,0.77
2019-02-19T03:07:41.109Z,0.81
2019-02-19T03:10:10.549Z,0.83
2019-02-19T03:12:39.970Z,0.80
2019-02-19T03:15:10.110Z,0.71
2019-02-19T03:17:39.546Z,0.77
2019-02-19T03:20:09.153Z,0.84
2019-02-19T03:22:38.583Z,0.82
2019-02-19T03:25:08.018Z,0.90
2019-02-19T03:27:37.438Z,1.04
2019-02-19T03:30:10.310Z,0.94
2019-02-19T03:32:39.835Z,0.94
2019-02-19T03:35:09.254Z,0.87
2019-02-19T03:37:38.673Z,0.73
2019-02-19T03:40:08.851Z,0.60
2019-02-19T03:42:38.352Z,0.64
2019-02-19T03:45:10.102Z,0.59
2019-02-19T03:47:39.525Z,0.49
2019-02-19T03:50:08.968Z,0.60
2019-02-19T03:52:38.395Z,0.59
2019-02-19T03:55:07.901Z,0.70
2019-02-19T03:57:37.471Z,0.71
2019-02-19T04:00:08.818Z,0.70
2019-02-19T04:02:38.252Z,0.74
2019-02-19T04:05:07.764Z,0.66
2019-02-19T04:07:37.191Z,0.70
2019-02-19T04:10:09.072Z,0.70
2019-02-19T04:12:38.500Z,0.66
2019-02-19T04:15:08.690Z,0.72
2019-02-19T04:17:38.118Z,0.74
2019-02-19T04:20:09.289Z,0.82
2019-02-19T04:22:38.713Z,0.82
2019-02-19T04:25:08.287Z,0.82
2019-02-19T04:27:37.725Z,0.77
2019-02-19T04:30:09.474Z,0.69
2019-02-19T04:32:38.899Z,0.67
2019-02-19T04:35:08.477Z,0.59
2019-02-19T04:37:37.911Z,0.51
2019-02-19T04:40:08.893Z,0.46
2019-02-19T04:42:38.317Z,0.50
2019-02-19T04:45:08.114Z,0.46
2019-02-19T04:47:37.598Z,0.36
2019-02-19T04:50:08.878Z,0.31
2019-02-19T04:52:38.313Z,0.32
2019-02-19T04:55:08.593Z,0.37
2019-02-19T04:57:38.018Z,0.40
2019-02-19T05:00:14.905Z,0.30
2019-02-19T05:02:44.336Z,0.38
2019-02-19T05:05:13.844Z,0.42
2019-02-19T05:07:43.268Z,0.44
2019-02-19T05:10:12.701Z,0.40
2019-02-19T05:12:42.137Z,0.38
2019-02-19T05:15:12.334Z,0.43
2019-02-19T05:17:41.770Z,0.49
2019-02-19T05:20:11.341Z,0.48
2019-02-19T05:22:40.770Z,0.52
2019-02-19T05:25:10.265Z,0.54
2019-02-19T05:27:39.709Z,0.58
2019-02-19T05:30:11.786Z,0.62
2019-02-19T05:32:41.216Z,0.54
2019-02-19T05:35:10.717Z,0.65
2019-02-19T05:37:40.150Z,0.68
2019-02-19T05:40:10.924Z,0.68
2019-02-19T05:42:40.363Z,0.77
2019-02-19T05:45:10.996Z,0.62
2019-02-19T05:47:40.442Z,0.61
2019-02-19T05:50:11.103Z,0.61
2019-02-19T05:52:40.549Z,0.60
2019-02-19T05:55:10.156Z,0.59
2019-02-19T05:57:39.593Z,0.58
2019-02-19T06:00:13.950Z,0.59
2019-02-19T06:02:43.382Z,0.62
2019-02-19T06:05:12.797Z,0.62
2019-02-19T06:07:42.234Z,0.66
2019-02-19T06:10:13.302Z,0.79
2019-02-19T06:12:42.736Z,0.89
2019-02-19T06:15:13.617Z,0.81
2019-02-19T06:17:43.046Z,0.67
2019-02-19T06:20:12.481Z,0.69
2019-02-19T06:22:41.919Z,0.59
2019-02-19T06:25:11.362Z,0.55
2019-02-19T06:27:40.796Z,0.60
2019-02-19T06:30:13.504Z,0.58
2019-02-19T06:32:43.128Z,0.65
2019-02-19T06:35:12.608Z,0.78
2019-02-19T06:37:42.057Z,0.81
2019-02-19T06:40:25.077Z,0.88
2019-02-19T06:42:54.526Z,0.82
2019-02-19T06:45:23.941Z,0.91
2019-02-19T06:47:53.385Z,0.94
2019-02-19T06:50:23.140Z,0.95
2019-02-19T06:52:52.584Z,1.01
2019-02-19T06:55:22.013Z,1.00
2019-02-19T06:57:51.459Z,1.06
2019-02-19T07:00:20.884Z,1.10
2019-02-19T07:02:50.098Z,1.17
2019-02-19T07:05:21.155Z,1.20
2019-02-19T07:07:50.591Z,1.33
2019-02-19T07:10:20.025Z,1.30
2019-02-19T07:12:49.465Z,1.29
2019-02-19T07:15:18.894Z,1.37
2019-02-19T07:17:48.327Z,1.40
2019-02-19T07:20:17.752Z,1.50
2019-02-19T07:22:47.202Z,1.61
2019-02-19T07:25:16.628Z,1.70
2019-02-19T07:27:46.071Z,1.84
2019-02-19T07:30:15.499Z,2.01
2019-02-19T07:32:44.941Z,2.13
2019-02-19T07:35:14.371Z,2.24
2019-02-19T07:37:43.808Z,2.29
2019-02-19T07:40:13.242Z,2.38
2019-02-19T07:42:42.682Z,2.45
2019-02-19T07:45:13.748Z,2.48
2019-02-19T07:47:43.193Z,2.55
2019-02-19T07:50:12.991Z,2.56
2019-02-19T07:52:42.433Z,2.58
2019-02-19T07:55:12.416Z,2.62
2019-02-19T07:57:42.925Z,2.84
2019-02-19T08:00:14.007Z,2.89
2019-02-19T08:02:43.575Z,2.91
2019-02-19T08:05:13.004Z,2.96
2019-02-19T08:07:42.470Z,2.99
2019-02-19T08:10:12.941Z,3.03
2019-02-19T08:12:42.385Z,3.14
2019-02-19T08:15:12.677Z,3.26
2019-02-19T08:17:42.129Z,3.20
2019-02-19T08:20:15.707Z,3.20
2019-02-19T08:22:42.807Z,3.36
2019-02-19T08:25:12.236Z,3.48
2019-02-19T08:27:41.672Z,3.48
2019-02-19T08:30:11.342Z,3.55
2019-02-19T08:32:40.759Z,3.64
2019-02-19T08:35:10.202Z,3.73
2019-02-19T08:37:39.653Z,3.80
2019-02-19T08:40:10.649Z,3.82
2019-02-19T08:42:40.068Z,3.93
2019-02-19T08:45:10.645Z,3.98
2019-02-19T08:47:42.737Z,4.01
2019-02-19T08:50:11.252Z,4.08
2019-02-19T08:52:40.688Z,4.22
2019-02-19T08:55:10.162Z,4.25
2019-02-19T08:57:39.555Z,4.29
2019-02-19T09:00:11.834Z,4.34
2019-02-19T09:02:41.305Z,4.35
2019-02-19T09:05:10.753Z,4.36
2019-02-19T09:07:40.188Z,4.45
2019-02-19T09:10:13.906Z,4.44
2019-02-19T09:12:43.347Z,4.49
2019-02-19T09:15:13.270Z,4.58
2019-02-19T09:17:51.334Z,4.64
2019-02-19T09:20:13.875Z,4.69
2019-02-19T09:22:43.302Z,4.73
2019-02-19T09:25:12.748Z,4.72
2019-02-19T09:27:43.350Z,4.76
2019-02-19T09:30:13.831Z,4.82
2019-02-19T09:32:43.264Z,4.90
2019-02-19T09:35:12.721Z,4.98
2019-02-19T09:37:42.149Z,5.02
2019-02-19T09:40:12.267Z,5.06
2019-02-19T09:42:41.715Z,5.09
2019-02-19T09:45:11.595Z,5.09
2019-02-19T09:47:41.041Z,5.20
2019-02-19T09:50:11.509Z,5.21
2019-02-19T09:52:40.953Z,5.21
2019-02-19T09:55:10.394Z,5.31
2019-02-19T09:57:39.817Z,5.30
2019-02-19T10:00:14.729Z,5.34
2019-02-19T10:02:44.188Z,5.39
2019-02-19T10:05:16.564Z,5.49
2019-02-19T10:07:47.939Z,5.51
2019-02-19T10:10:24.115Z,5.57
2019-02-19T10:12:53.562Z,5.58
2019-02-19T10:15:22.990Z,5.71
2019-02-19T10:17:52.448Z,5.70
2019-02-19T10:20:21.888Z,5.81
2019-02-19T10:22:51.327Z,5.86
2019-02-19T10:25:20.775Z,5.80
2019-02-19T10:27:51.546Z,5.81
2019-02-19T10:30:21.515Z,5.82
2019-02-19T10:32:50.946Z,5.86
2019-02-19T10:35:21.061Z,5.89
2019-02-19T10:37:51.822Z,6.01
2019-02-19T10:40:22.187Z,6.03
2019-02-19T10:42:51.629Z,6.13
2019-02-19T10:45:24.568Z,6.14
2019-02-19T10:47:53.999Z,6.14
2019-02-19T10:50:23.444Z,6.25
2019-02-19T10:52:52.865Z,6.30
2019-02-19T10:55:22.302Z,6.31
2019-02-19T10:57:51.735Z,6.49
2019-02-19T11:00:23.330Z,6.61
2019-02-19T11:02:52.759Z,6.71
2019-02-19T11:05:22.572Z,6.87
2019-02-19T11:07:52.009Z,7.14
2019-02-19T11:10:21.781Z,7.23
2019-02-19T11:12:51.212Z,7.28
2019-02-19T11:15:20.650Z,7.31
2019-02-19T11:17:50.083Z,7.43
2019-02-19T11:20:23.383Z,7.39
2019-02-19T11:22:52.812Z,7.37
2019-02-19T11:25:22.249Z,7.47
2019-02-19T11:27:51.687Z,7.56
2019-02-19T11:30:21.204Z,7.56
2019-02-19T11:32:50.632Z,7.65
2019-02-19T11:35:20.077Z,7.82
2019-02-19T11:37:49.505Z,7.99
2019-02-19T11:40:18.958Z,8.11
2019-02-19T11:42:48.377Z,8.10
2019-02-19T11:45:20.119Z,8.15
2019-02-19T11:47:49.586Z,8.17
2019-02-19T11:50:19.013Z,8.21
2019-02-19T11:52:48.457Z,8.23
2019-02-19T11:55:19.900Z,8.28
2019-02-19T11:57:49.338Z,8.34
2019-02-19T12:00:20.416Z,8.37
2019-02-19T12:02:49.858Z,8.38
2019-02-19T12:05:19.766Z,8.48
2019-02-19T12:07:49.974Z,8.55
2019-02-19T12:10:19.407Z,8.67
2019-02-19T12:12:48.858Z,8.81
2019-02-19T12:15:20.058Z,8.75
2019-02-19T12:17:49.502Z,8.76
2019-02-19T12:20:18.959Z,8.80
2019-02-19T12:22:48.407Z,8.91
2019-02-19T12:25:17.840Z,9.05
2019-02-19T12:27:47.280Z,9.11
2019-02-19T12:30:21.512Z,9.16
2019-02-19T12:32:50.956Z,9.21
2019-02-19T12:35:20.386Z,9.31
2019-02-19T12:37:49.830Z,9.28
2019-02-19T12:40:19.266Z,9.31
2019-02-19T12:42:48.717Z,9.24
2019-02-19T12:45:18.147Z,9.19
2019-02-19T12:47:47.590Z,9.22
2019-02-19T12:50:18.739Z,9.24
2019-02-19T12:52:48.187Z,9.37
2019-02-19T12:55:17.620Z,9.42
2019-02-19T12:57:47.056Z,9.47
2019-02-19T13:00:20.333Z,9.41
2019-02-19T13:02:50.048Z,9.43
2019-02-19T13:05:19.480Z,9.42
2019-02-19T13:07:48.924Z,9.39
2019-02-19T13:10:18.358Z,9.36
2019-02-19T13:12:49.142Z,9.42
2019-02-19T13:15:22.895Z,9.43
2019-02-19T13:17:52.339Z,9.39
2019-02-19T13:20:21.782Z,9.43
2019-02-19T13:22:51.227Z,9.45
2019-02-19T13:25:20.663Z,9.44
2019-02-19T13:27:50.112Z,9.51
2019-02-19T13:30:22.224Z,9.46
2019-02-19T13:32:51.664Z,9.43
2019-02-19T13:35:21.106Z,9.26
2019-02-19T13:37:50.537Z,9.31
2019-02-19T13:40:20.810Z,9.34
2019-02-19T13:42:50.589Z,9.22
2019-02-19T13:45:20.029Z,9.17
2019-02-19T13:47:49.478Z,9.23
2019-02-19T13:50:25.455Z,9.09
2019-02-19T13:53:05.078Z,9.08
2019-02-19T13:55:45.351Z,9.07
2019-02-19T13:58:14.788Z,9.05
2019-02-19T14:00:45.869Z,8.97
2019-02-19T14:03:15.323Z,8.92
2019-02-19T14:05:44.771Z,8.93
2019-02-19T14:08:14.973Z,8.89
2019-02-19T14:10:44.630Z,8.92
2019-02-19T14:13:14.089Z,8.89
2019-02-19T14:15:53.960Z,8.85
2019-02-19T14:18:27.452Z,8.92
2019-02-19T14:21:07.733Z,8.98
2019-02-19T14:23:39.056Z,9.01
2019-02-19T14:26:08.264Z,9.02
2019-02-19T14:28:45.163Z,8.94
2019-02-19T14:31:18.632Z,9.05
2019-02-19T14:33:58.558Z,9.04
2019-02-19T14:36:32.044Z,9.07
2019-02-19T14:39:19.288Z,9.03
2019-02-19T14:41:50.356Z,9.00
2019-02-19T14:44:27.186Z,9.04
2019-02-19T14:47:04.173Z,9.05
2019-02-19T14:49:37.464Z,9.03
2019-02-19T14:52:08.050Z,9.06
2019-02-19T14:54:51.992Z,8.98
2019-02-19T14:57:29.247Z,8.91
2019-02-19T15:00:18.538Z,8.83
2019-02-19T15:03:04.571Z,8.81
2019-02-19T15:05:51.942Z,8.79
2019-02-19T15:08:33.161Z,8.87
2019-02-19T15:11:05.040Z,8.85
2019-02-19T15:13:38.783Z,8.93
2019-02-19T15:16:26.171Z,8.92
2019-02-19T15:19:19.125Z,8.89
2019-02-19T15:21:48.843Z,8.89
2019-02-19T15:24:31.599Z,8.89
2019-02-19T15:27:18.642Z,9.02
2019-02-19T15:29:50.542Z,8.99
2019-02-19T15:32:21.623Z,9.06
2019-02-19T15:34:52.724Z,9.00
2019-02-19T15:37:39.836Z,9.00
2019-02-19T15:40:22.921Z,9.06
2019-02-19T15:42:53.981Z,8.99
2019-02-19T15:45:25.198Z,8.89
2019-02-19T15:48:11.227Z,8.92
2019-02-19T15:50:58.781Z,8.99
2019-02-19T15:53:29.903Z,8.94
2019-02-19T15:56:17.611Z,8.90
2019-02-19T15:58:48.228Z,8.87
2019-02-19T16:01:19.317Z,8.92
2019-02-19T16:03:53.188Z,8.95
2019-02-19T16:06:30.138Z,8.85
2019-02-19T16:09:01.200Z,8.85
2019-02-19T16:11:34.970Z,8.87
2019-02-19T16:14:06.030Z,8.94
2019-02-19T16:16:53.412Z,8.97
2019-02-19T16:19:37.664Z,9.01
2019-02-19T16:22:14.218Z,8.97
2019-02-19T16:24:54.320Z,8.92
2019-02-19T16:27:41.500Z,8.90
2019-02-19T16:30:20.279Z,8.87
2019-02-19T16:32:51.357Z,8.92
2019-02-19T16:35:28.198Z,8.93
2019-02-19T16:37:59.280Z,8.86
2019-02-19T16:40:46.628Z,8.82
2019-02-19T16:43:23.562Z,8.78
2019-02-19T16:45:57.312Z,8.78
2019-02-19T16:48:26.573Z,8.79
2019-02-19T16:51:03.162Z,8.76
2019-02-19T16:53:34.233Z,8.71
2019-02-19T16:56:07.741Z,8.72
2019-02-19T16:58:41.265Z,8.73
2019-02-19T17:01:17.776Z,8.85
2019-02-19T17:03:51.245Z,8.84
2019-02-19T17:06:28.088Z,8.77
2019-02-19T17:09:01.566Z,8.74
2019-02-19T17:11:35.097Z,8.70
2019-02-19T17:14:06.235Z,8.69
2019-02-19T17:16:43.134Z,8.66
2019-02-19T17:19:16.891Z,8.65
2019-02-19T17:21:47.966Z,8.65
2019-02-19T17:24:21.685Z,8.62
2019-02-19T17:26:58.607Z,8.62
2019-02-19T17:29:32.109Z,8.61
2019-02-19T17:32:06.073Z,8.59
2019-02-19T17:34:45.860Z,8.60
2019-02-19T17:37:15.087Z,8.61
2019-02-19T17:39:48.824Z,8.59
2019-02-19T17:42:28.695Z,8.54
2019-02-19T17:45:02.469Z,8.55
2019-02-19T17:47:36.280Z,8.52
2019-02-19T17:50:37.949Z,8.51
2019-02-19T17:53:07.841Z,8.86
2019-02-19T17:55:50.869Z,8.81
2019-02-19T17:58:24.495Z,8.67
2019-02-19T18:01:08.520Z,8.69
2019-02-19T18:03:51.247Z,8.67
2019-02-19T18:06:27.875Z,8.64
2019-02-19T18:09:01.841Z,8.59
2019-02-19T18:11:35.597Z,8.55
2019-02-19T18:14:07.479Z,8.58
2019-02-19T18:16:40.959Z,8.52
2019-02-19T18:19:10.404Z,8.51
2019-02-19T18:21:40.065Z,8.52
2019-02-19T18:24:11.158Z,8.50
2019-02-19T18:26:40.592Z,8.52
2019-02-19T18:29:10.039Z,8.51
2019-02-19T18:31:39.476Z,8.64
2019-02-19T18:34:08.916Z,8.86
2019-02-19T18:36:38.347Z,8.84
2019-02-19T18:39:07.869Z,8.93
2019-02-19T18:41:37.304Z,8.67
2019-02-19T18:44:06.750Z,8.62
2019-02-19T18:46:36.174Z,8.57
2019-02-19T18:49:05.623Z,8.52
2019-02-19T18:51:35.052Z,8.46
2019-02-19T18:54:04.567Z,8.41
2019-02-19T18:56:33.999Z,8.39
2019-02-19T18:59:03.450Z,8.37
2019-02-19T19:01:32.874Z,8.37
2019-02-19T19:04:02.318Z,8.34
2019-02-19T19:06:31.771Z,8.32
2019-02-19T19:09:01.202Z,8.29
2019-02-19T19:11:30.626Z,8.35
2019-02-19T19:14:00.071Z,8.27
2019-02-19T19:16:29.509Z,8.26
2019-02-19T19:18:58.988Z,8.21
2019-02-19T19:21:28.391Z,8.23
2019-02-19T19:23:57.840Z,8.17
2019-02-19T19:26:27.285Z,8.16
2019-02-19T19:28:56.726Z,8.09
2019-02-19T19:31:33.196Z,8.07
2019-02-19T19:33:57.329Z,8.10
2019-02-19T19:36:26.759Z,7.98
2019-02-19T19:38:57.557Z,7.90
2019-02-19T19:41:26.999Z,7.88
2019-02-19T19:43:56.438Z,7.82
2019-02-19T19:46:25.874Z,7.76
2019-02-19T19:48:55.318Z,7.72
2019-02-19T19:51:25.469Z,7.67
2019-02-19T19:53:54.915Z,7.59
2019-02-19T19:56:24.349Z,7.62
2019-02-19T19:58:53.795Z,7.57
2019-02-19T20:01:23.234Z,7.58
2019-02-19T20:03:52.681Z,7.50
2019-02-19T20:06:22.110Z,7.38
2019-02-19T20:08:51.562Z,7.32
2019-02-19T20:11:21.000Z,7.35
2019-02-19T20:13:50.439Z,7.34
2019-02-19T20:16:19.875Z,7.28
2019-02-19T20:18:49.332Z,7.23
2019-02-19T20:21:26.440Z,7.11
2019-02-19T20:23:50.171Z,7.03
2019-02-19T20:26:19.628Z,7.07
2019-02-19T20:28:49.055Z,6.99
2019-02-19T20:31:18.503Z,6.93
2019-02-19T20:33:47.925Z,6.79
2019-02-19T20:36:17.366Z,6.69
2019-02-19T20:38:46.802Z,6.71
2019-02-19T20:41:16.246Z,6.65
2019-02-19T20:43:45.675Z,6.46
2019-02-19T20:46:15.109Z,6.44
2019-02-19T20:48:44.541Z,6.52
2019-02-19T20:51:13.978Z,6.38
2019-02-19T20:53:43.408Z,6.31
2019-02-19T20:56:12.838Z,6.06
2019-02-19T20:58:42.272Z,6.13
2019-02-19T21:01:11.777Z,6.09
2019-02-19T21:03:41.208Z,6.03
2019-02-19T21:06:10.658Z,6.06
2019-02-19T21:08:40.076Z,5.91
2019-02-19T21:11:09.515Z,5.93
2019-02-19T21:13:39.017Z,5.75
2019-02-19T21:16:08.452Z,5.56
2019-02-19T21:18:37.873Z,5.48
2019-02-19T21:21:07.308Z,5.53
2019-02-19T21:23:36.745Z,5.55
2019-02-19T21:26:06.183Z,5.58
2019-02-19T21:28:35.607Z,5.66
2019-02-19T21:31:05.042Z,5.63
2019-02-19T21:33:34.467Z,5.48
2019-02-19T21:36:03.913Z,5.55
2019-02-19T21:38:33.344Z,5.53
2019-02-19T21:41:02.787Z,5.38
2019-02-19T21:43:32.220Z,5.23
2019-02-19T21:46:01.650Z,5.04
2019-02-19T21:48:31.102Z,5.15
2019-02-19T21:51:00.768Z,4.97
2019-02-19T21:53:30.212Z,5.01
2019-02-19T21:55:59.634Z,4.94
2019-02-19T21:58:29.075Z,4.90
2019-02-19T22:00:58.509Z,4.87
2019-02-19T22:03:27.996Z,4.66
2019-02-19T22:05:57.440Z,4.61
2019-02-19T22:08:26.875Z,4.50
2019-02-19T22:10:56.308Z,4.49
2019-02-19T22:13:25.744Z,4.41
2019-02-19T22:15:55.166Z,4.39
2019-02-19T22:18:24.606Z,4.28
2019-02-19T22:20:55.678Z,4.24
2019-02-19T22:23:25.120Z,4.19
2019-02-19T22:25:54.553Z,4.10
2019-02-19T22:28:23.983Z,3.99
2019-02-19T22:30:53.424Z,3.97
2019-02-19T22:33:22.866Z,4.02
2019-02-19T22:35:52.293Z,4.00
2019-02-19T22:38:21.740Z,3.97
2019-02-19T22:40:55.180Z,3.95
2019-02-19T22:43:22.329Z,4.02
2019-02-19T22:45:51.757Z,4.04
2019-02-19T22:48:21.198Z,4.01
2019-02-19T22:50:50.623Z,3.92
2019-02-19T22:53:33.691Z,3.91
2019-02-19T22:56:04.762Z,3.90
2019-02-19T22:58:34.196Z,3.86
2019-02-19T23:01:11.882Z,3.98
2019-02-19T23:03:41.316Z,3.93
2019-02-19T23:06:10.809Z,3.87
2019-02-19T23:08:40.242Z,3.76
2019-02-19T23:11:09.663Z,3.74
2019-02-19T23:13:39.100Z,3.85
2019-02-19T23:16:08.524Z,3.76
2019-02-19T23:18:37.960Z,3.73
2019-02-19T23:21:07.394Z,3.85
2019-02-19T23:23:36.834Z,3.85
2019-02-19T23:26:06.269Z,3.81
2019-02-19T23:28:35.717Z,3.79
2019-02-19T23:31:05.151Z,3.64
2019-02-19T23:33:34.589Z,3.72
2019-02-19T23:36:05.667Z,3.64
2019-02-19T23:38:35.109Z,3.74
2019-02-19T23:41:04.535Z,3.56
2019-02-19T23:43:33.975Z,3.69
2019-02-19T23:46:03.410Z,3.74
2019-02-19T23:48:32.849Z,3.79
2019-02-19T23:51:02.282Z,3.62
2019-02-19T23:53:31.721Z,3.49
2019-02-19T23:56:02.921Z,3.39
2019-02-19T23:58:32.363Z,3.45
